sensor_id;sensor_type;location;lat;lon;timestamp;pressure;altitude;pressure_sealevel;temperature;humidity
25610;BME280;13479;49.044;8.716;2024-01-15T05:02:19;97758.66;;;-0.68;75.92
25610;BME280;13479;49.044;8.716;2024-01-15T05:04:45;97747.13;;;-0.64;75.73
25610;BME280;13479;49.044;8.716;2024-01-15T05:07:10;97746.38;;;-0.66;75.98
25610;BME280;13479;49.044;8.716;2024-01-15T05:09:35;97783.06;;;-0.54;75.11
25610;BME280;13479;49.044;8.716;2024-01-15T05:12:01;97773.38;;;-0.52;75.21
25610;BME280;13479;49.044;8.716;2024-01-15T05:14:26;97786.19;;;-0.49;75.31
25610;BME280;13479;49.044;8.716;2024-01-15T05:16:51;97789.38;;;-0.44;75.02
25610;BME280;13479;49.044;8.716;2024-01-15T05:19:16;97786.78;;;-0.44;74.94
25610;BME280;13479;49.044;8.716;2024-01-15T05:21:42;97778.78;;;-0.55;75.29
25610;BME280;13479;49.044;8.716;2024-01-15T05:24:08;97782.88;;;-0.51;75.34
25610;BME280;13479;49.044;8.716;2024-01-15T05:26:33;97750.44;;;-0.47;75.31
25610;BME280;13479;49.044;8.716;2024-01-15T05:28:58;97763.31;;;-0.44;74.98
25610;BME280;13479;49.044;8.716;2024-01-15T05:31:24;97792.00;;;-0.44;75.27
25610;BME280;13479;49.044;8.716;2024-01-15T05:33:49;97790.09;;;-0.27;75.05
25610;BME280;13479;49.044;8.716;2024-01-15T05:36:14;97810.59;;;-0.36;74.91
25610;BME280;13479;49.044;8.716;2024-01-15T05:38:40;97834.81;;;-0.34;74.66
25610;BME280;13479;49.044;8.716;2024-01-15T05:41:05;97840.34;;;-0.24;74.53
25610;BME280;13479;49.044;8.716;2024-01-15T05:43:31;97851.97;;;-0.29;74.86
25610;BME280;13479;49.044;8.716;2024-01-15T05:45:56;97846.47;;;-0.39;74.60
25610;BME280;13479;49.044;8.716;2024-01-15T05:48:21;97847.22;;;-0.23;74.42
25610;BME280;13479;49.044;8.716;2024-01-15T05:50:47;97865.28;;;-0.20;74.12
25610;BME280;13479;49.044;8.716;2024-01-15T05:53:12;97875.44;;;-0.15;74.52
25610;BME280;13479;49.044;8.716;2024-01-15T05:55:37;97895.94;;;-0.09;74.11
25610;BME280;13479;49.044;8.716;2024-01-15T05:58:05;97913.66;;;0.01;73.66
25610;BME280;13479;49.044;8.716;2024-01-15T06:00:31;97933.78;;;-0.02;73.60
25610;BME280;13479;49.044;8.716;2024-01-15T06:02:58;97929.31;;;0.15;73.67
25610;BME280;13479;49.044;8.716;2024-01-15T06:05:23;97953.53;;;0.03;73.25
25610;BME280;13479;49.044;8.716;2024-01-15T06:07:48;97918.50;;;-0.08;73.66
25610;BME280;13479;49.044;8.716;2024-01-15T06:10:14;97907.50;;;0.02;73.84
25610;BME280;13479;49.044;8.716;2024-01-15T06:12:39;97930.22;;;-0.01;73.60
25610;BME280;13479;49.044;8.716;2024-01-15T06:15:04;97936.84;;;-0.09;73.37
25610;BME280;13479;49.044;8.716;2024-01-15T06:17:30;97924.47;;;-0.06;73.53
25610;BME280;13479;49.044;8.716;2024-01-15T06:19:56;97932.03;;;-0.01;73.49
25610;BME280;13479;49.044;8.716;2024-01-15T06:22:22;97944.78;;;0.04;73.39
25610;BME280;13479;49.044;8.716;2024-01-15T06:24:47;97963.78;;;-0.09;73.39
25610;BME280;13479;49.044;8.716;2024-01-15T06:27:12;97946.00;;;-0.02;72.82
25610;BME280;13479;49.044;8.716;2024-01-15T06:29:38;97925.00;;;-0.29;73.48
25610;BME280;13479;49.044;8.716;2024-01-15T06:32:04;97886.34;;;-0.37;73.73
25610;BME280;13479;49.044;8.716;2024-01-15T06:34:29;97869.47;;;-0.32;73.63
25610;BME280;13479;49.044;8.716;2024-01-15T06:36:55;97886.25;;;-0.21;73.10
25610;BME280;13479;49.044;8.716;2024-01-15T06:39:20;97900.03;;;-0.34;73.46
25610;BME280;13479;49.044;8.716;2024-01-15T06:41:45;97887.75;;;-0.17;73.26
25610;BME280;13479;49.044;8.716;2024-01-15T06:44:11;97937.13;;;0.01;72.67
25610;BME280;13479;49.044;8.716;2024-01-15T06:46:36;97985.22;;;0.11;71.69
25610;BME280;13479;49.044;8.716;2024-01-15T06:49:02;98011.28;;;-0.18;72.35
25610;BME280;13479;49.044;8.716;2024-01-15T06:51:28;97977.22;;;-0.01;72.32
25610;BME280;13479;49.044;8.716;2024-01-15T06:53:53;97967.66;;;-0.16;72.30
25610;BME280;13479;49.044;8.716;2024-01-15T06:56:19;97939.25;;;-0.21;72.61
25610;BME280;13479;49.044;8.716;2024-01-15T06:58:44;97924.63;;;-0.23;72.65
25610;BME280;13479;49.044;8.716;2024-01-15T07:01:09;97926.59;;;-0.12;72.69
25610;BME280;13479;49.044;8.716;2024-01-15T07:03:35;97921.75;;;-0.04;72.20
25610;BME280;13479;49.044;8.716;2024-01-15T07:06:00;97933.03;;;-0.18;72.66
25610;BME280;13479;49.044;8.716;2024-01-15T07:08:26;97906.47;;;-0.25;72.61
25610;BME280;13479;49.044;8.716;2024-01-15T07:10:51;97891.09;;;-0.15;72.95
25610;BME280;13479;49.044;8.716;2024-01-15T07:13:17;97892.50;;;-0.24;72.46
25610;BME280;13479;49.044;8.716;2024-01-15T07:15:42;97884.56;;;-0.22;72.49
25610;BME280;13479;49.044;8.716;2024-01-15T07:18:08;97900.22;;;-0.22;72.91
25610;BME280;13479;49.044;8.716;2024-01-15T07:20:33;97871.34;;;-0.34;73.03
25610;BME280;13479;49.044;8.716;2024-01-15T07:22:58;97878.16;;;-0.17;72.40
25610;BME280;13479;49.044;8.716;2024-01-15T07:25:24;97904.41;;;-0.34;72.69
25610;BME280;13479;49.044;8.716;2024-01-15T07:27:51;97882.69;;;-0.35;73.22
25610;BME280;13479;49.044;8.716;2024-01-15T07:30:16;97868.91;;;-0.22;73.07
25610;BME280;13479;49.044;8.716;2024-01-15T07:32:42;97883.19;;;-0.28;73.21
25610;BME280;13479;49.044;8.716;2024-01-15T07:35:07;97878.34;;;-0.05;72.62
25610;BME280;13479;49.044;8.716;2024-01-15T07:37:33;97898.63;;;-0.10;72.89
25610;BME280;13479;49.044;8.716;2024-01-15T07:39:58;97907.13;;;-0.21;72.85
25610;BME280;13479;49.044;8.716;2024-01-15T07:42:24;97904.81;;;-0.11;72.55
25610;BME280;13479;49.044;8.716;2024-01-15T07:44:49;97913.47;;;-0.11;72.33
25610;BME280;13479;49.044;8.716;2024-01-15T07:47:17;97925.00;;;-0.01;72.28
25610;BME280;13479;49.044;8.716;2024-01-15T07:49:42;97929.69;;;0.09;72.71
25610;BME280;13479;49.044;8.716;2024-01-15T07:52:07;98000.06;;;0.25;71.42
25610;BME280;13479;49.044;8.716;2024-01-15T07:54:33;98028.00;;;0.23;71.78
25610;BME280;13479;49.044;8.716;2024-01-15T07:57:02;98013.00;;;0.12;71.45
25610;BME280;13479;49.044;8.716;2024-01-15T07:59:31;97998.84;;;0.16;71.41
25610;BME280;13479;49.044;8.716;2024-01-15T08:01:58;98006.41;;;0.21;71.65
25610;BME280;13479;49.044;8.716;2024-01-15T08:04:24;98071.09;;;0.15;70.79
25610;BME280;13479;49.044;8.716;2024-01-15T08:06:49;98035.56;;;0.13;71.01
25610;BME280;13479;49.044;8.716;2024-01-15T08:09:14;98031.59;;;0.22;70.81
25610;BME280;13479;49.044;8.716;2024-01-15T08:11:40;98027.94;;;0.24;71.15
25610;BME280;13479;49.044;8.716;2024-01-15T08:14:07;98006.88;;;0.27;70.37
25610;BME280;13479;49.044;8.716;2024-01-15T08:16:32;98018.81;;;0.32;70.87
25610;BME280;13479;49.044;8.716;2024-01-15T08:18:57;98009.94;;;0.34;70.75
25610;BME280;13479;49.044;8.716;2024-01-15T08:21:23;98002.78;;;0.38;70.39
25610;BME280;13479;49.044;8.716;2024-01-15T08:23:48;98014.34;;;0.48;70.61
25610;BME280;13479;49.044;8.716;2024-01-15T08:26:13;98021.91;;;0.53;69.92
25610;BME280;13479;49.044;8.716;2024-01-15T08:28:39;98013.03;;;0.55;70.21
25610;BME280;13479;49.044;8.716;2024-01-15T08:31:04;97996.78;;;0.65;69.99
25610;BME280;13479;49.044;8.716;2024-01-15T08:33:29;97981.84;;;0.67;69.80
25610;BME280;13479;49.044;8.716;2024-01-15T08:35:55;97972.44;;;0.64;70.26
25610;BME280;13479;49.044;8.716;2024-01-15T08:38:20;97975.13;;;0.77;69.92
25610;BME280;13479;49.044;8.716;2024-01-15T08:40:46;97966.16;;;0.81;69.99
25610;BME280;13479;49.044;8.716;2024-01-15T08:43:11;97937.06;;;0.73;70.86
25610;BME280;13479;49.044;8.716;2024-01-15T08:45:36;97855.09;;;0.61;71.57
25610;BME280;13479;49.044;8.716;2024-01-15T08:48:02;97793.41;;;0.73;72.09
25610;BME280;13479;49.044;8.716;2024-01-15T08:50:29;97772.69;;;0.70;71.96
25610;BME280;13479;49.044;8.716;2024-01-15T08:52:54;97754.59;;;0.67;71.81
25610;BME280;13479;49.044;8.716;2024-01-15T08:55:20;97687.84;;;0.88;72.96
25610;BME280;13479;49.044;8.716;2024-01-15T08:57:47;97692.34;;;0.73;72.16
25610;BME280;13479;49.044;8.716;2024-01-15T09:00:13;97724.03;;;0.95;71.68
25610;BME280;13479;49.044;8.716;2024-01-15T09:02:38;97794.59;;;0.95;70.74
25610;BME280;13479;49.044;8.716;2024-01-15T09:05:04;97828.75;;;0.91;71.19
25610;BME280;13479;49.044;8.716;2024-01-15T09:07:29;97842.56;;;0.94;71.59
25610;BME280;13479;49.044;8.716;2024-01-15T09:09:55;97864.22;;;0.96;70.85
25610;BME280;13479;49.044;8.716;2024-01-15T09:12:20;97869.44;;;0.96;71.31
25610;BME280;13479;49.044;8.716;2024-01-15T09:14:47;97894.84;;;1.06;70.39
25610;BME280;13479;49.044;8.716;2024-01-15T09:17:12;97919.56;;;1.15;70.29
25610;BME280;13479;49.044;8.716;2024-01-15T09:19:38;97958.66;;;1.17;69.78
25610;BME280;13479;49.044;8.716;2024-01-15T09:22:05;97983.56;;;1.22;69.09
25610;BME280;13479;49.044;8.716;2024-01-15T09:24:30;97971.63;;;1.18;69.37
25610;BME280;13479;49.044;8.716;2024-01-15T09:26:55;97955.00;;;1.19;69.50
25610;BME280;13479;49.044;8.716;2024-01-15T09:29:21;97962.31;;;1.14;69.73
25610;BME280;13479;49.044;8.716;2024-01-15T09:31:48;97932.97;;;1.23;69.10
25610;BME280;13479;49.044;8.716;2024-01-15T09:34:14;97916.03;;;1.16;69.67
25610;BME280;13479;49.044;8.716;2024-01-15T09:36:40;97878.81;;;1.26;69.73
25610;BME280;13479;49.044;8.716;2024-01-15T09:39:06;97857.16;;;1.23;69.93
25610;BME280;13479;49.044;8.716;2024-01-15T09:41:34;97831.31;;;1.32;70.18
25610;BME280;13479;49.044;8.716;2024-01-15T09:44:00;97814.06;;;1.29;70.66
25610;BME280;13479;49.044;8.716;2024-01-15T09:46:28;97790.53;;;1.42;70.24
25610;BME280;13479;49.044;8.716;2024-01-15T09:48:53;97809.06;;;1.39;69.85
25610;BME280;13479;49.044;8.716;2024-01-15T09:51:19;97850.16;;;1.37;69.46
25610;BME280;13479;49.044;8.716;2024-01-15T09:53:46;97893.19;;;1.46;69.69
25610;BME280;13479;49.044;8.716;2024-01-15T09:56:12;97931.16;;;1.51;69.01
25610;BME280;13479;49.044;8.716;2024-01-15T09:58:38;97931.47;;;1.60;68.71
25610;BME280;13479;49.044;8.716;2024-01-15T10:01:04;97938.91;;;1.66;68.34
25610;BME280;13479;49.044;8.716;2024-01-15T10:03:29;97903.25;;;1.78;68.43
25610;BME280;13479;49.044;8.716;2024-01-15T10:05:55;97886.56;;;1.66;68.36
25610;BME280;13479;49.044;8.716;2024-01-15T10:08:24;97855.69;;;1.58;69.06
25610;BME280;13479;49.044;8.716;2024-01-15T10:10:50;97805.19;;;1.58;69.23
25610;BME280;13479;49.044;8.716;2024-01-15T10:13:15;97776.19;;;1.48;69.05
25610;BME280;13479;49.044;8.716;2024-01-15T10:15:41;97756.75;;;1.52;69.08
25610;BME280;13479;49.044;8.716;2024-01-15T10:18:08;97756.28;;;1.58;69.41
25610;BME280;13479;49.044;8.716;2024-01-15T10:20:33;97709.66;;;1.52;70.29
25610;BME280;13479;49.044;8.716;2024-01-15T10:22:58;97656.19;;;1.56;70.74
25610;BME280;13479;49.044;8.716;2024-01-15T10:25:24;97612.59;;;1.68;71.01
25610;BME280;13479;49.044;8.716;2024-01-15T10:28:01;97583.81;;;1.92;70.79
25610;BME280;13479;49.044;8.716;2024-01-15T10:30:27;97569.06;;;1.67;71.79
25610;BME280;13479;49.044;8.716;2024-01-15T10:33:00;97510.53;;;1.57;72.83
25610;BME280;13479;49.044;8.716;2024-01-15T10:35:35;97504.25;;;1.59;73.97
25610;BME280;13479;49.044;8.716;2024-01-15T10:38:01;97503.41;;;1.59;73.53
25610;BME280;13479;49.044;8.716;2024-01-15T10:40:29;97509.72;;;1.56;74.42
25610;BME280;13479;49.044;8.716;2024-01-15T10:42:54;97505.38;;;1.44;75.27
25610;BME280;13479;49.044;8.716;2024-01-15T10:45:20;97520.69;;;1.37;76.22
25610;BME280;13479;49.044;8.716;2024-01-15T10:47:46;97547.66;;;1.37;76.22
25610;BME280;13479;49.044;8.716;2024-01-15T10:50:11;97559.34;;;1.45;77.58
25610;BME280;13479;49.044;8.716;2024-01-15T10:52:38;97581.97;;;1.33;77.62
25610;BME280;13479;49.044;8.716;2024-01-15T10:55:06;97589.69;;;1.47;77.89
25610;BME280;13479;49.044;8.716;2024-01-15T10:57:32;97610.06;;;1.42;78.77
25610;BME280;13479;49.044;8.716;2024-01-15T10:59:58;97628.84;;;1.36;79.24
25610;BME280;13479;49.044;8.716;2024-01-15T11:02:24;97633.97;;;1.25;80.05
25610;BME280;13479;49.044;8.716;2024-01-15T11:04:50;97652.94;;;1.15;80.16
25610;BME280;13479;49.044;8.716;2024-01-15T11:07:15;97668.00;;;1.12;80.92
25610;BME280;13479;49.044;8.716;2024-01-15T11:09:41;97696.50;;;1.15;81.68
25610;BME280;13479;49.044;8.716;2024-01-15T11:12:09;97720.91;;;1.15;81.80
25610;BME280;13479;49.044;8.716;2024-01-15T11:17:04;97736.06;;;1.23;81.57
25610;BME280;13479;49.044;8.716;2024-01-15T11:19:50;97740.31;;;1.11;81.92
25610;BME280;13479;49.044;8.716;2024-01-15T11:25:17;97764.06;;;1.08;82.68
25610;BME280;13479;49.044;8.716;2024-01-15T11:27:51;97777.25;;;1.19;83.04
25610;BME280;13479;49.044;8.716;2024-01-15T11:30:17;97801.09;;;1.28;83.17
25610;BME280;13479;49.044;8.716;2024-01-15T11:32:42;97812.38;;;1.28;83.56
25610;BME280;13479;49.044;8.716;2024-01-15T11:35:12;97804.44;;;1.30;83.28
25610;BME280;13479;49.044;8.716;2024-01-15T11:40:18;97842.13;;;1.40;82.68
25610;BME280;13479;49.044;8.716;2024-01-15T11:42:47;97831.34;;;1.45;82.52
25610;BME280;13479;49.044;8.716;2024-01-15T11:45:15;97842.00;;;1.42;83.06
25610;BME280;13479;49.044;8.716;2024-01-15T11:50:17;97791.88;;;1.35;83.46
25610;BME280;13479;49.044;8.716;2024-01-15T11:52:51;97808.50;;;1.08;83.76
25610;BME280;13479;49.044;8.716;2024-01-15T11:55:28;97807.66;;;1.07;84.84
25610;BME280;13479;49.044;8.716;2024-01-15T11:57:55;97815.69;;;0.91;84.61
25610;BME280;13479;49.044;8.716;2024-01-15T12:00:21;97848.38;;;1.25;83.83
25610;BME280;13479;49.044;8.716;2024-01-15T12:02:48;97835.91;;;1.15;84.51
25610;BME280;13479;49.044;8.716;2024-01-15T12:05:15;97841.88;;;1.17;84.29
25610;BME280;13479;49.044;8.716;2024-01-15T12:07:42;97842.41;;;1.22;84.50
25610;BME280;13479;49.044;8.716;2024-01-15T12:10:18;97844.50;;;1.43;84.64
25610;BME280;13479;49.044;8.716;2024-01-15T12:13:00;97882.34;;;1.25;84.35
25610;BME280;13479;49.044;8.716;2024-01-15T12:15:30;97836.97;;;1.26;85.06
25610;BME280;13479;49.044;8.716;2024-01-15T12:17:56;97820.00;;;1.18;85.18
25610;BME280;13479;49.044;8.716;2024-01-15T12:20:26;97831.50;;;1.16;85.33
25610;BME280;13479;49.044;8.716;2024-01-15T12:22:51;97856.00;;;1.28;85.12
25610;BME280;13479;49.044;8.716;2024-01-15T12:25:17;97857.06;;;1.38;85.31
25610;BME280;13479;49.044;8.716;2024-01-15T12:27:42;97868.97;;;1.29;84.93
25610;BME280;13479;49.044;8.716;2024-01-15T12:30:13;97883.22;;;1.38;84.35
25610;BME280;13479;49.044;8.716;2024-01-15T12:32:41;97892.66;;;1.66;84.29
25610;BME280;13479;49.044;8.716;2024-01-15T12:35:07;97925.94;;;1.51;84.25
25610;BME280;13479;49.044;8.716;2024-01-15T12:37:35;97931.34;;;1.48;83.65
25610;BME280;13479;49.044;8.716;2024-01-15T12:40:00;97916.66;;;1.33;84.04
25610;BME280;13479;49.044;8.716;2024-01-15T12:42:27;97894.00;;;1.46;84.37
25610;BME280;13479;49.044;8.716;2024-01-15T12:44:55;97880.19;;;1.44;84.91
25610;BME280;13479;49.044;8.716;2024-01-15T12:47:21;97873.28;;;1.43;84.68
25610;BME280;13479;49.044;8.716;2024-01-15T12:49:47;97860.44;;;1.40;85.25
25610;BME280;13479;49.044;8.716;2024-01-15T12:52:15;97860.44;;;1.79;84.44
25610;BME280;13479;49.044;8.716;2024-01-15T12:54:40;97888.56;;;1.62;84.56
25610;BME280;13479;49.044;8.716;2024-01-15T12:57:06;97869.63;;;1.72;84.94
25610;BME280;13479;49.044;8.716;2024-01-15T12:59:31;97884.06;;;1.77;84.56
25610;BME280;13479;49.044;8.716;2024-01-15T13:01:56;97909.63;;;1.74;83.97
25610;BME280;13479;49.044;8.716;2024-01-15T13:04:22;97894.75;;;1.61;84.72
25610;BME280;13479;49.044;8.716;2024-01-15T13:06:49;97858.34;;;1.71;85.59
25610;BME280;13479;49.044;8.716;2024-01-15T13:09:14;97838.13;;;1.73;85.27
25610;BME280;13479;49.044;8.716;2024-01-15T13:11:40;97850.16;;;1.89;85.06
25610;BME280;13479;49.044;8.716;2024-01-15T13:14:05;97872.34;;;1.83;85.18
25610;BME280;13479;49.044;8.716;2024-01-15T13:16:31;97880.50;;;1.78;85.08
25610;BME280;13479;49.044;8.716;2024-01-15T13:18:56;97893.59;;;1.78;84.64
25610;BME280;13479;49.044;8.716;2024-01-15T13:21:22;97891.41;;;1.85;85.03
25610;BME280;13479;49.044;8.716;2024-01-15T13:23:47;97915.50;;;1.90;84.43
25610;BME280;13479;49.044;8.716;2024-01-15T13:26:13;97920.50;;;1.93;84.58
25610;BME280;13479;49.044;8.716;2024-01-15T13:28:38;97933.16;;;1.87;84.02
25610;BME280;13479;49.044;8.716;2024-01-15T13:31:03;97950.84;;;1.83;84.66
25610;BME280;13479;49.044;8.716;2024-01-15T13:33:30;97922.19;;;1.68;84.92
25610;BME280;13479;49.044;8.716;2024-01-15T13:35:55;97917.06;;;1.80;84.92
25610;BME280;13479;49.044;8.716;2024-01-15T13:38:20;97920.06;;;1.61;84.86
25610;BME280;13479;49.044;8.716;2024-01-15T13:40:46;97897.03;;;1.66;85.33
25610;BME280;13479;49.044;8.716;2024-01-15T13:43:11;97876.75;;;1.57;85.55
25610;BME280;13479;49.044;8.716;2024-01-15T13:45:39;97886.38;;;1.56;85.08
25610;BME280;13479;49.044;8.716;2024-01-15T13:48:05;97878.41;;;1.58;85.40
25610;BME280;13479;49.044;8.716;2024-01-15T13:50:31;97916.53;;;1.62;85.35
25610;BME280;13479;49.044;8.716;2024-01-15T13:52:56;97914.63;;;1.51;85.32
25610;BME280;13479;49.044;8.716;2024-01-15T13:55:22;97899.84;;;1.50;85.58
25610;BME280;13479;49.044;8.716;2024-01-15T13:57:48;97910.94;;;1.53;85.46
25610;BME280;13479;49.044;8.716;2024-01-15T14:00:13;97908.94;;;1.44;85.95
25610;BME280;13479;49.044;8.716;2024-01-15T14:02:43;97901.22;;;1.56;86.10
25610;BME280;13479;49.044;8.716;2024-01-15T14:05:09;97928.97;;;1.71;86.11
25610;BME280;13479;49.044;8.716;2024-01-15T14:07:34;97966.22;;;1.62;85.19
25610;BME280;13479;49.044;8.716;2024-01-15T14:09:59;97973.66;;;1.68;85.21
25610;BME280;13479;49.044;8.716;2024-01-15T14:12:24;97993.22;;;1.62;85.34
25610;BME280;13479;49.044;8.716;2024-01-15T14:14:51;97971.97;;;1.54;85.61
25610;BME280;13479;49.044;8.716;2024-01-15T14:17:17;97956.72;;;1.61;85.63
25610;BME280;13479;49.044;8.716;2024-01-15T14:19:43;97952.72;;;1.68;85.88
25610;BME280;13479;49.044;8.716;2024-01-15T14:22:08;97969.47;;;1.78;85.35
25610;BME280;13479;49.044;8.716;2024-01-15T14:24:33;97989.97;;;1.72;84.80
25610;BME280;13479;49.044;8.716;2024-01-15T14:26:59;98000.88;;;1.78;85.30
25610;BME280;13479;49.044;8.716;2024-01-15T14:29:24;97998.78;;;1.70;84.71
25610;BME280;13479;49.044;8.716;2024-01-15T14:31:51;98015.78;;;1.91;84.40
25610;BME280;13479;49.044;8.716;2024-01-15T14:34:17;98024.75;;;1.74;84.24
25610;BME280;13479;49.044;8.716;2024-01-15T14:36:43;98016.13;;;1.59;84.57
25610;BME280;13479;49.044;8.716;2024-01-15T14:39:08;98008.81;;;1.64;84.72
25610;BME280;13479;49.044;8.716;2024-01-15T14:41:35;98027.72;;;1.54;84.30
25610;BME280;13479;49.044;8.716;2024-01-15T14:44:00;98061.72;;;1.54;83.81
25610;BME280;13479;49.044;8.716;2024-01-15T14:46:25;98046.34;;;1.50;84.18
25610;BME280;13479;49.044;8.716;2024-01-15T14:48:52;98054.97;;;1.37;83.76
25610;BME280;13479;49.044;8.716;2024-01-15T14:51:18;98036.81;;;1.49;83.67
25610;BME280;13479;49.044;8.716;2024-01-15T14:53:43;98051.88;;;1.45;83.90
25610;BME280;13479;49.044;8.716;2024-01-15T14:56:09;98073.66;;;1.46;83.50
25610;BME280;13479;49.044;8.716;2024-01-15T14:58:35;98046.94;;;1.41;84.07
25610;BME280;13479;49.044;8.716;2024-01-15T15:01:00;98034.91;;;1.38;84.35
25610;BME280;13479;49.044;8.716;2024-01-15T15:03:26;98033.50;;;1.60;83.85
25610;BME280;13479;49.044;8.716;2024-01-15T15:05:51;98064.59;;;1.37;83.88
25610;BME280;13479;49.044;8.716;2024-01-15T15:08:16;98052.91;;;1.43;84.32
25610;BME280;13479;49.044;8.716;2024-01-15T15:10:42;98051.91;;;1.31;84.24
25610;BME280;13479;49.044;8.716;2024-01-15T15:13:07;98042.44;;;1.43;84.57
25610;BME280;13479;49.044;8.716;2024-01-15T15:15:33;98052.06;;;1.42;84.70
25610;BME280;13479;49.044;8.716;2024-01-15T15:17:59;98042.59;;;1.27;84.63
25610;BME280;13479;49.044;8.716;2024-01-15T15:20:25;98051.59;;;1.35;84.53
25610;BME280;13479;49.044;8.716;2024-01-15T15:22:50;98064.34;;;1.27;84.57
25610;BME280;13479;49.044;8.716;2024-01-15T15:25:20;98044.28;;;1.28;84.51
25610;BME280;13479;49.044;8.716;2024-01-15T15:27:47;98078.97;;;1.44;83.77
25610;BME280;13479;49.044;8.716;2024-01-15T15:30:12;98101.97;;;1.25;83.76
25610;BME280;13479;49.044;8.716;2024-01-15T15:32:37;98094.88;;;1.27;83.85
25610;BME280;13479;49.044;8.716;2024-01-15T15:35:03;98077.19;;;1.03;84.40
25610;BME280;13479;49.044;8.716;2024-01-15T15:37:28;98065.31;;;1.12;84.57
25610;BME280;13479;49.044;8.716;2024-01-15T15:39:55;98065.59;;;1.07;84.40
25610;BME280;13479;49.044;8.716;2024-01-15T15:42:20;98055.19;;;0.92;84.55
25610;BME280;13479;49.044;8.716;2024-01-15T15:44:46;98029.63;;;0.83;85.16
25610;BME280;13479;49.044;8.716;2024-01-15T15:47:12;98024.84;;;0.90;85.33
25610;BME280;13479;49.044;8.716;2024-01-15T15:49:39;98031.09;;;0.87;85.02
25610;BME280;13479;49.044;8.716;2024-01-15T15:52:05;98054.06;;;0.82;84.35
25610;BME280;13479;49.044;8.716;2024-01-15T15:54:30;98075.16;;;0.65;84.54
25610;BME280;13479;49.044;8.716;2024-01-15T15:56:55;98097.63;;;0.53;84.28
25610;BME280;13479;49.044;8.716;2024-01-15T15:59:20;98099.38;;;0.38;84.48
25610;BME280;13479;49.044;8.716;2024-01-15T16:01:47;98087.72;;;0.29;84.36
25610;BME280;13479;49.044;8.716;2024-01-15T16:04:13;98074.56;;;0.30;84.54
25610;BME280;13479;49.044;8.716;2024-01-15T16:06:40;98101.59;;;0.29;83.72
25610;BME280;13479;49.044;8.716;2024-01-15T16:09:05;98098.31;;;0.26;84.71
25610;BME280;13479;49.044;8.716;2024-01-15T16:11:31;98091.63;;;0.22;84.68
25610;BME280;13479;49.044;8.716;2024-01-15T16:13:57;98070.63;;;0.23;84.47
25610;BME280;13479;49.044;8.716;2024-01-15T16:16:22;98064.97;;;0.31;85.07
25610;BME280;13479;49.044;8.716;2024-01-15T16:18:47;98061.50;;;0.30;85.25
25610;BME280;13479;49.044;8.716;2024-01-15T16:21:13;98068.50;;;0.30;85.43
25610;BME280;13479;49.044;8.716;2024-01-15T16:23:38;98111.91;;;0.47;84.45
25610;BME280;13479;49.044;8.716;2024-01-15T16:26:03;98122.03;;;0.37;84.55
25610;BME280;13479;49.044;8.716;2024-01-15T16:28:29;98137.16;;;0.46;84.61
25610;BME280;13479;49.044;8.716;2024-01-15T16:30:54;98152.25;;;0.41;84.22
25610;BME280;13479;49.044;8.716;2024-01-15T16:33:20;98155.63;;;0.43;84.59
25610;BME280;13479;49.044;8.716;2024-01-15T16:35:45;98156.19;;;0.49;84.47
25610;BME280;13479;49.044;8.716;2024-01-15T16:38:10;98181.16;;;0.38;83.88
25610;BME280;13479;49.044;8.716;2024-01-15T16:40:36;98205.41;;;0.40;83.33
25610;BME280;13479;49.044;8.716;2024-01-15T16:43:02;98208.47;;;0.33;83.44
25610;BME280;13479;49.044;8.716;2024-01-15T16:45:27;98224.00;;;0.20;83.61
25610;BME280;13479;49.044;8.716;2024-01-15T16:47:52;98193.75;;;0.15;83.95
25610;BME280;13479;49.044;8.716;2024-01-15T16:50:18;98184.75;;;0.21;83.78
25610;BME280;13479;49.044;8.716;2024-01-15T16:52:43;98209.00;;;0.23;83.83
25610;BME280;13479;49.044;8.716;2024-01-15T16:55:09;98224.81;;;0.20;83.26
25610;BME280;13479;49.044;8.716;2024-01-15T16:57:34;98247.91;;;0.28;83.21
25610;BME280;13479;49.044;8.716;2024-01-15T16:59:59;98252.69;;;0.36;83.39
25610;BME280;13479;49.044;8.716;2024-01-15T17:02:25;98250.25;;;0.63;82.34
25610;BME280;13479;49.044;8.716;2024-01-15T17:04:50;98289.31;;;0.50;82.12
25610;BME280;13479;49.044;8.716;2024-01-15T17:07:15;98305.00;;;0.50;81.81
25610;BME280;13479;49.044;8.716;2024-01-15T17:09:41;98302.28;;;0.52;81.38
25610;BME280;13479;49.044;8.716;2024-01-15T17:12:08;98306.97;;;0.61;81.08
25610;BME280;13479;49.044;8.716;2024-01-15T17:14:33;98317.31;;;0.63;80.59
25610;BME280;13479;49.044;8.716;2024-01-15T17:16:59;98286.34;;;0.56;80.86
25610;BME280;13479;49.044;8.716;2024-01-15T17:19:24;98282.53;;;0.62;80.57
25610;BME280;13479;49.044;8.716;2024-01-15T17:21:51;98288.59;;;0.63;80.50
25610;BME280;13479;49.044;8.716;2024-01-15T17:24:18;98297.94;;;0.67;79.96
25610;BME280;13479;49.044;8.716;2024-01-15T17:26:43;98320.66;;;0.50;79.69
25610;BME280;13479;49.044;8.716;2024-01-15T17:29:09;98314.06;;;0.43;79.42
25610;BME280;13479;49.044;8.716;2024-01-15T17:31:34;98305.44;;;0.26;79.36
25610;BME280;13479;49.044;8.716;2024-01-15T17:33:59;98271.50;;;0.26;79.86
25610;BME280;13479;49.044;8.716;2024-01-15T17:36:25;98292.44;;;0.25;79.23
25610;BME280;13479;49.044;8.716;2024-01-15T17:38:50;98292.78;;;0.03;79.67
25610;BME280;13479;49.044;8.716;2024-01-15T17:41:15;98253.97;;;-0.04;79.82
25610;BME280;13479;49.044;8.716;2024-01-15T17:43:41;98245.06;;;0.01;79.61
25610;BME280;13479;49.044;8.716;2024-01-15T17:46:06;98237.22;;;0.17;79.72
25610;BME280;13479;49.044;8.716;2024-01-15T17:48:32;98234.75;;;0.13;79.61
25610;BME280;13479;49.044;8.716;2024-01-15T17:50:58;98261.72;;;0.30;79.44
25610;BME280;13479;49.044;8.716;2024-01-15T17:53:24;98285.63;;;0.22;79.06
25610;BME280;13479;49.044;8.716;2024-01-15T17:55:50;98283.78;;;0.24;79.11
25610;BME280;13479;49.044;8.716;2024-01-15T17:58:15;98296.06;;;0.22;79.07
25610;BME280;13479;49.044;8.716;2024-01-15T18:00:40;98300.94;;;0.28;78.19
25610;BME280;13479;49.044;8.716;2024-01-15T18:03:05;98294.53;;;0.34;79.05
25610;BME280;13479;49.044;8.716;2024-01-15T18:05:31;98300.25;;;0.41;78.53
25610;BME280;13479;49.044;8.716;2024-01-15T18:07:56;98320.97;;;0.44;77.93
25610;BME280;13479;49.044;8.716;2024-01-15T18:10:22;98318.97;;;0.49;77.48
25610;BME280;13479;49.044;8.716;2024-01-15T18:12:47;98316.28;;;0.35;78.18
25610;BME280;13479;49.044;8.716;2024-01-15T18:15:12;98292.53;;;0.39;78.27